sensor_id;sensor_type;location;lat;lon;timestamp;temperature;humidity
16964;DHT22;8598;50.508;10.436;2023-02-26T00:02:06;-1.60;99.90
16964;DHT22;8598;50.508;10.436;2023-02-26T00:04:35;-1.60;99.90
16964;DHT22;8598;50.508;10.436;2023-02-26T00:07:01;-1.70;99.90
16964;DHT22;8598;50.508;10.436;2023-02-26T00:09:29;-1.70;99.90
16964;DHT22;8598;50.508;10.436;2023-02-26T00:11:56;-1.70;99.90
16964;DHT22;8598;50.508;10.436;2023-02-26T00:14:24;-1.70;99.90
16964;DHT22;8598;50.508;10.436;2023-02-26T00:16:57;-1.60;99.90
16964;DHT22;8598;50.508;10.436;2023-02-26T00:19:31;-1.60;99.90
16964;DHT22;8598;50.508;10.436;2023-02-26T00:21:58;-1.60;99.90
16964;DHT22;8598;50.508;10.436;2023-02-26T00:24:24;-1.60;99.90
16964;DHT22;8598;50.508;10.436;2023-02-26T00:26:51;-1.60;99.90
16964;DHT22;8598;50.508;10.436;2023-02-26T00:29:18;-1.60;99.90
16964;DHT22;8598;50.508;10.436;2023-02-26T00:31:45;-1.70;99.90
16964;DHT22;8598;50.508;10.436;2023-02-26T00:34:14;-1.70;99.90
16964;DHT22;8598;50.508;10.436;2023-02-26T00:36:43;-1.70;99.90
16964;DHT22;8598;50.508;10.436;2023-02-26T00:39:19;-1.70;99.90
16964;DHT22;8598;50.508;10.436;2023-02-26T00:41:48;-1.60;99.90
16964;DHT22;8598;50.508;10.436;2023-02-26T00:44:15;-1.60;99.90
16964;DHT22;8598;50.508;10.436;2023-02-26T00:46:46;-1.50;99.90
16964;DHT22;8598;50.508;10.436;2023-02-26T00:49:22;-1.60;99.90
16964;DHT22;8598;50.508;10.436;2023-02-26T00:51:55;-1.60;99.90
16964;DHT22;8598;50.508;10.436;2023-02-26T00:54:24;-1.70;99.90
16964;DHT22;8598;50.508;10.436;2023-02-26T00:56:52;-1.70;99.90
16964;DHT22;8598;50.508;10.436;2023-02-26T00:59:20;-1.70;99.90
16964;DHT22;8598;50.508;10.436;2023-02-26T01:01:47;-1.70;99.90
16964;DHT22;8598;50.508;10.436;2023-02-26T01:04:15;-1.80;99.90
16964;DHT22;8598;50.508;10.436;2023-02-26T01:06:46;-1.80;99.90
16964;DHT22;8598;50.508;10.436;2023-02-26T01:09:18;-1.80;99.90
16964;DHT22;8598;50.508;10.436;2023-02-26T01:11:46;-1.90;99.90
16964;DHT22;8598;50.508;10.436;2023-02-26T01:14:13;-1.90;99.90
16964;DHT22;8598;50.508;10.436;2023-02-26T01:16:49;-1.90;99.90
16964;DHT22;8598;50.508;10.436;2023-02-26T01:19:24;-1.90;99.90
16964;DHT22;8598;50.508;10.436;2023-02-26T01:22:00;-1.80;99.90
16964;DHT22;8598;50.508;10.436;2023-02-26T01:24:30;-1.80;99.90
16964;DHT22;8598;50.508;10.436;2023-02-26T01:26:57;-1.70;99.90
16964;DHT22;8598;50.508;10.436;2023-02-26T01:29:24;-1.80;99.90
16964;DHT22;8598;50.508;10.436;2023-02-26T01:31:56;-1.70;99.90
16964;DHT22;8598;50.508;10.436;2023-02-26T01:34:31;-1.70;99.90
16964;DHT22;8598;50.508;10.436;2023-02-26T01:37:09;-1.70;99.90
16964;DHT22;8598;50.508;10.436;2023-02-26T01:39:42;-1.70;99.90
16964;DHT22;8598;50.508;10.436;2023-02-26T01:42:14;-1.70;99.90
16964;DHT22;8598;50.508;10.436;2023-02-26T01:44:52;-1.70;99.90
16964;DHT22;8598;50.508;10.436;2023-02-26T01:47:25;-1.60;99.90
16964;DHT22;8598;50.508;10.436;2023-02-26T01:49:54;-1.60;99.90
16964;DHT22;8598;50.508;10.436;2023-02-26T01:55:29;-1.60;99.90
16964;DHT22;8598;50.508;10.436;2023-02-26T01:57:58;-1.70;99.90
16964;DHT22;8598;50.508;10.436;2023-02-26T02:00:25;-1.70;99.90
16964;DHT22;8598;50.508;10.436;2023-02-26T02:02:52;-1.70;99.90
16964;DHT22;8598;50.508;10.436;2023-02-26T02:05:23;-1.80;99.90
16964;DHT22;8598;50.508;10.436;2023-02-26T02:07:52;-1.80;99.90
16964;DHT22;8598;50.508;10.436;2023-02-26T02:10:19;-1.90;99.90
16964;DHT22;8598;50.508;10.436;2023-02-26T02:12:51;-1.80;99.90
16964;DHT22;8598;50.508;10.436;2023-02-26T02:15:24;-1.80;99.90
16964;DHT22;8598;50.508;10.436;2023-02-26T02:18:00;-1.80;99.90
16964;DHT22;8598;50.508;10.436;2023-02-26T02:23:29;-1.80;99.90
16964;DHT22;8598;50.508;10.436;2023-02-26T02:29:24;-1.80;99.90
16964;DHT22;8598;50.508;10.436;2023-02-26T02:31:56;-1.80;99.90
16964;DHT22;8598;50.508;10.436;2023-02-26T02:34:28;-1.80;99.90
16964;DHT22;8598;50.508;10.436;2023-02-26T02:36:58;-1.80;99.90
16964;DHT22;8598;50.508;10.436;2023-02-26T02:39:28;-1.90;99.90
16964;DHT22;8598;50.508;10.436;2023-02-26T02:41:58;-2.00;99.90
16964;DHT22;8598;50.508;10.436;2023-02-26T02:44:27;-2.00;99.90
16964;DHT22;8598;50.508;10.436;2023-02-26T02:46:57;-2.10;99.90
16964;DHT22;8598;50.508;10.436;2023-02-26T02:49:28;-2.10;99.90
16964;DHT22;8598;50.508;10.436;2023-02-26T02:51:59;-2.10;99.90
16964;DHT22;8598;50.508;10.436;2023-02-26T02:54:32;-2.10;99.90
16964;DHT22;8598;50.508;10.436;2023-02-26T02:57:03;-2.10;99.90
16964;DHT22;8598;50.508;10.436;2023-02-26T02:59:37;-2.20;99.90
16964;DHT22;8598;50.508;10.436;2023-02-26T03:02:09;-2.20;99.90
16964;DHT22;8598;50.508;10.436;2023-02-26T03:04:37;-2.20;99.90
16964;DHT22;8598;50.508;10.436;2023-02-26T03:07:04;-2.20;99.90
16964;DHT22;8598;50.508;10.436;2023-02-26T03:09:31;-2.20;99.90
16964;DHT22;8598;50.508;10.436;2023-02-26T03:11:58;-2.20;99.90
16964;DHT22;8598;50.508;10.436;2023-02-26T03:14:26;-2.20;99.90
16964;DHT22;8598;50.508;10.436;2023-02-26T03:17:02;-2.20;99.90
16964;DHT22;8598;50.508;10.436;2023-02-26T03:19:37;-2.20;99.90
16964;DHT22;8598;50.508;10.436;2023-02-26T03:22:09;-2.10;99.90
16964;DHT22;8598;50.508;10.436;2023-02-26T03:24:45;-2.00;99.90
16964;DHT22;8598;50.508;10.436;2023-02-26T03:27:17;-1.90;99.90
16964;DHT22;8598;50.508;10.436;2023-02-26T03:29:50;-1.90;99.90
16964;DHT22;8598;50.508;10.436;2023-02-26T03:32:20;-1.80;99.90
16964;DHT22;8598;50.508;10.436;2023-02-26T03:34:53;-1.90;99.90
16964;DHT22;8598;50.508;10.436;2023-02-26T03:37:25;-1.90;99.90
16964;DHT22;8598;50.508;10.436;2023-02-26T03:39:54;-1.90;99.90
16964;DHT22;8598;50.508;10.436;2023-02-26T03:42:26;-1.90;99.90
16964;DHT22;8598;50.508;10.436;2023-02-26T03:44:56;-1.80;99.90
16964;DHT22;8598;50.508;10.436;2023-02-26T03:47:24;-1.80;99.90
16964;DHT22;8598;50.508;10.436;2023-02-26T03:49:55;-1.80;99.90
16964;DHT22;8598;50.508;10.436;2023-02-26T03:52:27;-1.80;99.90
16964;DHT22;8598;50.508;10.436;2023-02-26T03:54:59;-1.80;99.90
16964;DHT22;8598;50.508;10.436;2023-02-26T03:57:27;-1.80;99.90
16964;DHT22;8598;50.508;10.436;2023-02-26T03:59:53;-1.80;99.90
16964;DHT22;8598;50.508;10.436;2023-02-26T04:02:24;-1.80;99.90
16964;DHT22;8598;50.508;10.436;2023-02-26T04:04:57;-1.80;99.90
16964;DHT22;8598;50.508;10.436;2023-02-26T04:07:25;-1.70;99.90
16964;DHT22;8598;50.508;10.436;2023-02-26T04:09:52;-1.70;99.90
16964;DHT22;8598;50.508;10.436;2023-02-26T04:12:20;-1.80;99.90
16964;DHT22;8598;50.508;10.436;2023-02-26T04:14:47;-1.70;99.90
16964;DHT22;8598;50.508;10.436;2023-02-26T04:17:14;-1.70;99.90
16964;DHT22;8598;50.508;10.436;2023-02-26T04:19:41;-1.70;99.90
16964;DHT22;8598;50.508;10.436;2023-02-26T04:22:09;-1.70;99.90
16964;DHT22;8598;50.508;10.436;2023-02-26T04:24:36;-1.70;99.90
16964;DHT22;8598;50.508;10.436;2023-02-26T04:27:02;-1.60;99.90
16964;DHT22;8598;50.508;10.436;2023-02-26T04:29:29;-1.70;99.90
16964;DHT22;8598;50.508;10.436;2023-02-26T04:31:56;-1.60;99.90
16964;DHT22;8598;50.508;10.436;2023-02-26T04:34:23;-1.60;99.90
16964;DHT22;8598;50.508;10.436;2023-02-26T04:36:49;-1.60;99.90
16964;DHT22;8598;50.508;10.436;2023-02-26T04:39:17;-1.60;99.90
16964;DHT22;8598;50.508;10.436;2023-02-26T04:41:44;-1.60;99.90
16964;DHT22;8598;50.508;10.436;2023-02-26T04:44:10;-1.70;99.90
16964;DHT22;8598;50.508;10.436;2023-02-26T04:46:37;-1.70;99.90
16964;DHT22;8598;50.508;10.436;2023-02-26T04:49:04;-1.70;99.90
16964;DHT22;8598;50.508;10.436;2023-02-26T04:51:30;-1.70;99.90
16964;DHT22;8598;50.508;10.436;2023-02-26T04:53:57;-1.70;99.90
16964;DHT22;8598;50.508;10.436;2023-02-26T04:56:25;-1.80;99.90
16964;DHT22;8598;50.508;10.436;2023-02-26T04:58:52;-1.90;99.90
16964;DHT22;8598;50.508;10.436;2023-02-26T05:01:19;-1.90;99.90
16964;DHT22;8598;50.508;10.436;2023-02-26T05:03:46;-1.90;99.90
16964;DHT22;8598;50.508;10.436;2023-02-26T05:06:12;-1.90;99.90
16964;DHT22;8598;50.508;10.436;2023-02-26T05:08:39;-2.00;99.90
16964;DHT22;8598;50.508;10.436;2023-02-26T05:11:07;-2.00;99.90
16964;DHT22;8598;50.508;10.436;2023-02-26T05:13:35;-2.00;99.90
16964;DHT22;8598;50.508;10.436;2023-02-26T05:16:02;-2.10;99.90
16964;DHT22;8598;50.508;10.436;2023-02-26T05:18:29;-2.10;99.90
16964;DHT22;8598;50.508;10.436;2023-02-26T05:20:57;-2.10;99.90
16964;DHT22;8598;50.508;10.436;2023-02-26T05:23:24;-2.10;99.90
16964;DHT22;8598;50.508;10.436;2023-02-26T05:25:53;-2.00;99.90
16964;DHT22;8598;50.508;10.436;2023-02-26T05:28:20;-2.00;99.90
16964;DHT22;8598;50.508;10.436;2023-02-26T05:30:48;-2.00;99.90
16964;DHT22;8598;50.508;10.436;2023-02-26T05:33:15;-2.00;99.90
16964;DHT22;8598;50.508;10.436;2023-02-26T05:35:41;-1.90;99.90
16964;DHT22;8598;50.508;10.436;2023-02-26T05:38:08;-2.00;99.90
16964;DHT22;8598;50.508;10.436;2023-02-26T05:40:35;-1.90;99.90
16964;DHT22;8598;50.508;10.436;2023-02-26T05:43:01;-1.90;99.90
16964;DHT22;8598;50.508;10.436;2023-02-26T05:45:28;-2.00;99.90
16964;DHT22;8598;50.508;10.436;2023-02-26T05:47:56;-2.00;99.90
16964;DHT22;8598;50.508;10.436;2023-02-26T05:50:23;-2.00;99.90
16964;DHT22;8598;50.508;10.436;2023-02-26T05:52:51;-2.00;99.90
16964;DHT22;8598;50.508;10.436;2023-02-26T05:55:18;-2.00;99.90
16964;DHT22;8598;50.508;10.436;2023-02-26T05:57:44;-2.00;99.90
16964;DHT22;8598;50.508;10.436;2023-02-26T06:00:12;-1.90;99.90
16964;DHT22;8598;50.508;10.436;2023-02-26T06:02:39;-1.90;99.90
16964;DHT22;8598;50.508;10.436;2023-02-26T06:05:08;-1.90;99.90
16964;DHT22;8598;50.508;10.436;2023-02-26T06:07:35;-1.90;99.90
16964;DHT22;8598;50.508;10.436;2023-02-26T06:10:03;-1.90;99.90
16964;DHT22;8598;50.508;10.436;2023-02-26T06:12:29;-1.90;99.90
16964;DHT22;8598;50.508;10.436;2023-02-26T06:14:56;-2.00;99.90
16964;DHT22;8598;50.508;10.436;2023-02-26T06:17:23;-1.90;99.90
16964;DHT22;8598;50.508;10.436;2023-02-26T06:19:49;-1.90;99.90
16964;DHT22;8598;50.508;10.436;2023-02-26T06:22:18;-1.90;99.90
16964;DHT22;8598;50.508;10.436;2023-02-26T06:24:44;-1.90;99.90
16964;DHT22;8598;50.508;10.436;2023-02-26T06:27:11;-1.80;99.90
16964;DHT22;8598;50.508;10.436;2023-02-26T06:29:37;-1.80;99.90
16964;DHT22;8598;50.508;10.436;2023-02-26T06:32:04;-1.80;99.90
16964;DHT22;8598;50.508;10.436;2023-02-26T06:34:31;-1.80;99.90
16964;DHT22;8598;50.508;10.436;2023-02-26T06:36:58;-1.80;99.90
16964;DHT22;8598;50.508;10.436;2023-02-26T06:39:26;-1.80;99.90
16964;DHT22;8598;50.508;10.436;2023-02-26T06:41:52;-1.80;99.90
16964;DHT22;8598;50.508;10.436;2023-02-26T06:44:19;-1.80;99.90
16964;DHT22;8598;50.508;10.436;2023-02-26T06:46:46;-1.80;99.90
16964;DHT22;8598;50.508;10.436;2023-02-26T06:49:12;-1.70;99.90
16964;DHT22;8598;50.508;10.436;2023-02-26T06:51:39;-1.70;99.90
16964;DHT22;8598;50.508;10.436;2023-02-26T06:54:06;-1.60;99.90
16964;DHT22;8598;50.508;10.436;2023-02-26T06:56:34;-1.60;99.90
16964;DHT22;8598;50.508;10.436;2023-02-26T06:59:00;-1.60;99.90
16964;DHT22;8598;50.508;10.436;2023-02-26T07:01:27;-1.50;99.90
16964;DHT22;8598;50.508;10.436;2023-02-26T07:03:56;-1.50;99.90
16964;DHT22;8598;50.508;10.436;2023-02-26T07:06:23;-1.40;99.90
16964;DHT22;8598;50.508;10.436;2023-02-26T07:08:49;-1.40;99.90
16964;DHT22;8598;50.508;10.436;2023-02-26T07:11:16;-1.30;99.90
16964;DHT22;8598;50.508;10.436;2023-02-26T07:13:44;-1.20;99.90
16964;DHT22;8598;50.508;10.436;2023-02-26T07:16:10;-1.20;99.90
16964;DHT22;8598;50.508;10.436;2023-02-26T07:18:37;-1.10;99.90
16964;DHT22;8598;50.508;10.436;2023-02-26T07:21:04;-1.00;99.90
16964;DHT22;8598;50.508;10.436;2023-02-26T07:23:31;-0.80;99.90
16964;DHT22;8598;50.508;10.436;2023-02-26T07:25:58;-0.60;99.90
16964;DHT22;8598;50.508;10.436;2023-02-26T07:28:24;-0.70;99.90
16964;DHT22;8598;50.508;10.436;2023-02-26T07:30:54;-0.40;99.90
16964;DHT22;8598;50.508;10.436;2023-02-26T07:33:21;0.00;99.90
16964;DHT22;8598;50.508;10.436;2023-02-26T07:35:48;0.20;99.90
16964;DHT22;8598;50.508;10.436;2023-02-26T07:38:15;0.30;99.90
16964;DHT22;8598;50.508;10.436;2023-02-26T07:40:41;0.30;99.90
16964;DHT22;8598;50.508;10.436;2023-02-26T07:43:08;0.40;99.90
16964;DHT22;8598;50.508;10.436;2023-02-26T07:45:34;0.30;99.90
16964;DHT22;8598;50.508;10.436;2023-02-26T07:48:03;0.20;99.90
16964;DHT22;8598;50.508;10.436;2023-02-26T07:50:29;0.40;99.90
16964;DHT22;8598;50.508;10.436;2023-02-26T07:52:57;0.40;99.90
16964;DHT22;8598;50.508;10.436;2023-02-26T07:55:24;0.20;99.90
16964;DHT22;8598;50.508;10.436;2023-02-26T07:57:52;0.30;99.90
16964;DHT22;8598;50.508;10.436;2023-02-26T08:00:19;0.20;99.90
16964;DHT22;8598;50.508;10.436;2023-02-26T08:02:45;-0.10;99.90
16964;DHT22;8598;50.508;10.436;2023-02-26T08:05:14;-0.10;99.90
16964;DHT22;8598;50.508;10.436;2023-02-26T08:07:40;0.10;99.90
16964;DHT22;8598;50.508;10.436;2023-02-26T08:10:08;0.20;99.90
16964;DHT22;8598;50.508;10.436;2023-02-26T08:12:35;0.20;99.90
16964;DHT22;8598;50.508;10.436;2023-02-26T08:15:02;0.40;99.90
16964;DHT22;8598;50.508;10.436;2023-02-26T08:17:29;0.40;99.90
16964;DHT22;8598;50.508;10.436;2023-02-26T08:19:56;0.60;99.90
16964;DHT22;8598;50.508;10.436;2023-02-26T08:22:24;0.50;99.90
16964;DHT22;8598;50.508;10.436;2023-02-26T08:24:51;0.60;99.90
16964;DHT22;8598;50.508;10.436;2023-02-26T08:27:18;0.90;99.90
16964;DHT22;8598;50.508;10.436;2023-02-26T08:29:44;0.90;99.90
16964;DHT22;8598;50.508;10.436;2023-02-26T08:32:11;0.90;99.90
16964;DHT22;8598;50.508;10.436;2023-02-26T08:34:39;0.80;99.90
16964;DHT22;8598;50.508;10.436;2023-02-26T08:37:06;0.90;99.90
16964;DHT22;8598;50.508;10.436;2023-02-26T08:39:37;1.00;99.90
16964;DHT22;8598;50.508;10.436;2023-02-26T08:42:04;1.30;99.90
16964;DHT22;8598;50.508;10.436;2023-02-26T08:44:30;1.10;99.90
16964;DHT22;8598;50.508;10.436;2023-02-26T08:46:57;1.10;99.90
16964;DHT22;8598;50.508;10.436;2023-02-26T08:49:24;1.20;99.90
16964;DHT22;8598;50.508;10.436;2023-02-26T08:51:51;1.40;99.90
16964;DHT22;8598;50.508;10.436;2023-02-26T08:54:17;1.10;99.90
16964;DHT22;8598;50.508;10.436;2023-02-26T08:56:45;0.90;99.90
16964;DHT22;8598;50.508;10.436;2023-02-26T08:59:12;0.70;99.90
16964;DHT22;8598;50.508;10.436;2023-02-26T09:01:39;0.90;99.90
16964;DHT22;8598;50.508;10.436;2023-02-26T09:04:06;0.70;99.90
16964;DHT22;8598;50.508;10.436;2023-02-26T09:06:32;0.60;99.90
16964;DHT22;8598;50.508;10.436;2023-02-26T09:08:59;0.70;99.90
16964;DHT22;8598;50.508;10.436;2023-02-26T09:11:25;0.90;99.90
16964;DHT22;8598;50.508;10.436;2023-02-26T09:13:56;1.10;99.90
16964;DHT22;8598;50.508;10.436;2023-02-26T09:16:23;1.20;99.90
16964;DHT22;8598;50.508;10.436;2023-02-26T09:18:50;1.20;99.90
16964;DHT22;8598;50.508;10.436;2023-02-26T09:21:17;1.20;99.90
16964;DHT22;8598;50.508;10.436;2023-02-26T09:23:43;1.00;99.90
16964;DHT22;8598;50.508;10.436;2023-02-26T09:26:10;1.00;99.90
16964;DHT22;8598;50.508;10.436;2023-02-26T09:28:36;0.70;99.90
16964;DHT22;8598;50.508;10.436;2023-02-26T09:31:05;0.80;99.90
16964;DHT22;8598;50.508;10.436;2023-02-26T09:33:32;0.20;99.90
16964;DHT22;8598;50.508;10.436;2023-02-26T09:35:59;0.20;99.90
16964;DHT22;8598;50.508;10.436;2023-02-26T09:38:26;0.20;99.90
16964;DHT22;8598;50.508;10.436;2023-02-26T09:40:56;0.40;99.90
16964;DHT22;8598;50.508;10.436;2023-02-26T09:43:43;0.60;99.90
16964;DHT22;8598;50.508;10.436;2023-02-26T09:46:23;0.90;99.90
16964;DHT22;8598;50.508;10.436;2023-02-26T09:48:59;1.30;99.90
16964;DHT22;8598;50.508;10.436;2023-02-26T09:51:28;1.20;99.90
16964;DHT22;8598;50.508;10.436;2023-02-26T09:53:56;1.00;99.90
16964;DHT22;8598;50.508;10.436;2023-02-26T09:56:25;1.20;99.90
16964;DHT22;8598;50.508;10.436;2023-02-26T09:58:55;1.30;99.90
16964;DHT22;8598;50.508;10.436;2023-02-26T10:01:28;1.40;99.90
16964;DHT22;8598;50.508;10.436;2023-02-26T10:04:05;1.20;99.90
16964;DHT22;8598;50.508;10.436;2023-02-26T10:06:39;1.30;99.90
16964;DHT22;8598;50.508;10.436;2023-02-26T10:09:29;1.40;99.90
16964;DHT22;8598;50.508;10.436;2023-02-26T10:12:02;1.50;99.90
16964;DHT22;8598;50.508;10.436;2023-02-26T10:14:33;1.30;99.90
16964;DHT22;8598;50.508;10.436;2023-02-26T10:17:06;1.30;99.90
16964;DHT22;8598;50.508;10.436;2023-02-26T10:19:43;1.20;99.90
16964;DHT22;8598;50.508;10.436;2023-02-26T10:22:15;1.20;99.90
16964;DHT22;8598;50.508;10.436;2023-02-26T10:24:46;0.90;99.90
16964;DHT22;8598;50.508;10.436;2023-02-26T10:27:16;0.80;99.90
16964;DHT22;8598;50.508;10.436;2023-02-26T10:29:50;0.70;99.90
16964;DHT22;8598;50.508;10.436;2023-02-26T10:32:27;0.70;99.90
16964;DHT22;8598;50.508;10.436;2023-02-26T10:34:57;0.80;99.90
16964;DHT22;8598;50.508;10.436;2023-02-26T10:37:35;0.80;99.90
16964;DHT22;8598;50.508;10.436;2023-02-26T10:40:09;1.00;99.90
16964;DHT22;8598;50.508;10.436;2023-02-26T10:42:40;1.00;99.90
16964;DHT22;8598;50.508;10.436;2023-02-26T10:45:21;1.20;99.90
16964;DHT22;8598;50.508;10.436;2023-02-26T10:47:55;1.10;99.90
16964;DHT22;8598;50.508;10.436;2023-02-26T10:50:23;1.20;99.90
16964;DHT22;8598;50.508;10.436;2023-02-26T10:52:53;1.40;99.90
16964;DHT22;8598;50.508;10.436;2023-02-26T10:55:29;1.40;99.90
16964;DHT22;8598;50.508;10.436;2023-02-26T10:58:03;1.80;99.90
16964;DHT22;8598;50.508;10.436;2023-02-26T11:00:31;2.10;99.90
16964;DHT22;8598;50.508;10.436;2023-02-26T11:03:02;2.30;99.90
16964;DHT22;8598;50.508;10.436;2023-02-26T11:05:31;2.10;99.90
16964;DHT22;8598;50.508;10.436;2023-02-26T11:08:01;2.10;99.90
16964;DHT22;8598;50.508;10.436;2023-02-26T11:10:41;2.20;99.90
16964;DHT22;8598;50.508;10.436;2023-02-26T11:13:10;1.90;99.90
16964;DHT22;8598;50.508;10.436;2023-02-26T11:15:37;1.80;99.90
16964;DHT22;8598;50.508;10.436;2023-02-26T11:18:11;1.80;99.90
16964;DHT22;8598;50.508;10.436;2023-02-26T11:20:43;2.10;99.90
16964;DHT22;8598;50.508;10.436;2023-02-26T11:23:12;2.10;99.90
16964;DHT22;8598;50.508;10.436;2023-02-26T11:25:40;2.00;99.90
16964;DHT22;8598;50.508;10.436;2023-02-26T11:28:19;1.60;99.90
16964;DHT22;8598;50.508;10.436;2023-02-26T11:30:46;1.50;99.90
16964;DHT22;8598;50.508;10.436;2023-02-26T11:33:20;1.40;99.90
16964;DHT22;8598;50.508;10.436;2023-02-26T11:35:47;1.30;99.90
16964;DHT22;8598;50.508;10.436;2023-02-26T11:38:19;1.50;99.90
16964;DHT22;8598;50.508;10.436;2023-02-26T11:40:49;1.70;99.90
16964;DHT22;8598;50.508;10.436;2023-02-26T11:43:19;1.70;99.90
16964;DHT22;8598;50.508;10.436;2023-02-26T11:45:52;1.90;99.90
16964;DHT22;8598;50.508;10.436;2023-02-26T11:48:22;2.10;99.90
16964;DHT22;8598;50.508;10.436;2023-02-26T11:50:52;2.20;99.90
16964;DHT22;8598;50.508;10.436;2023-02-26T11:53:25;2.50;99.90
16964;DHT22;8598;50.508;10.436;2023-02-26T11:55:59;3.00;99.90
16964;DHT22;8598;50.508;10.436;2023-02-26T11:58:28;3.10;99.90
16964;DHT22;8598;50.508;10.436;2023-02-26T12:00:58;3.00;99.90
16964;DHT22;8598;50.508;10.436;2023-02-26T12:03:28;3.00;99.90
16964;DHT22;8598;50.508;10.436;2023-02-26T12:05:57;2.90;99.90
16964;DHT22;8598;50.508;10.436;2023-02-26T12:08:29;2.70;99.90
16964;DHT22;8598;50.508;10.436;2023-02-26T12:11:30;2.70;99.90
16964;DHT22;8598;50.508;10.436;2023-02-26T12:14:25;2.60;99.90
16964;DHT22;8598;50.508;10.436;2023-02-26T12:17:04;2.60;99.90
16964;DHT22;8598;50.508;10.436;2023-02-26T12:19:41;2.80;99.90
16964;DHT22;8598;50.508;10.436;2023-02-26T12:22:34;2.70;99.90
16964;DHT22;8598;50.508;10.436;2023-02-26T12:25:19;2.80;99.90
16964;DHT22;8598;50.508;10.436;2023-02-26T12:28:06;2.50;99.90
16964;DHT22;8598;50.508;10.436;2023-02-26T12:30:50;2.70;99.90
16964;DHT22;8598;50.508;10.436;2023-02-26T12:33:28;2.60;99.90
16964;DHT22;8598;50.508;10.436;2023-02-26T12:36:11;2.60;99.90
16964;DHT22;8598;50.508;10.436;2023-02-26T12:38:47;2.70;99.90
16964;DHT22;8598;50.508;10.436;2023-02-26T12:41:35;3.00;99.90
16964;DHT22;8598;50.508;10.436;2023-02-26T12:44:15;3.10;99.90
16964;DHT22;8598;50.508;10.436;2023-02-26T12:46:55;3.10;99.90
16964;DHT22;8598;50.508;10.436;2023-02-26T12:49:38;2.90;99.90
16964;DHT22;8598;50.508;10.436;2023-02-26T12:52:31;2.60;99.90
16964;DHT22;8598;50.508;10.436;2023-02-26T12:55:09;2.70;99.90
16964;DHT22;8598;50.508;10.436;2023-02-26T12:57:49;2.70;99.90
16964;DHT22;8598;50.508;10.436;2023-02-26T13:00:30;2.60;99.90
16964;DHT22;8598;50.508;10.436;2023-02-26T13:06:33;2.60;99.90
16964;DHT22;8598;50.508;10.436;2023-02-26T13:09:11;2.70;99.90
16964;DHT22;8598;50.508;10.436;2023-02-26T13:11:48;2.90;99.90
16964;DHT22;8598;50.508;10.436;2023-02-26T13:14:27;3.00;99.90
16964;DHT22;8598;50.508;10.436;2023-02-26T13:17:02;2.80;99.90
16964;DHT22;8598;50.508;10.436;2023-02-26T13:19:38;2.80;99.90
16964;DHT22;8598;50.508;10.436;2023-02-26T13:22:17;2.90;99.90
16964;DHT22;8598;50.508;10.436;2023-02-26T13:24:51;3.20;99.90
16964;DHT22;8598;50.508;10.436;2023-02-26T13:27:20;3.20;99.90
16964;DHT22;8598;50.508;10.436;2023-02-26T13:29:58;3.00;99.90
16964;DHT22;8598;50.508;10.436;2023-02-26T13:32:27;2.90;99.90
16964;DHT22;8598;50.508;10.436;2023-02-26T13:34:56;2.60;99.90
16964;DHT22;8598;50.508;10.436;2023-02-26T13:37:26;2.40;99.90
16964;DHT22;8598;50.508;10.436;2023-02-26T13:40:02;2.30;99.90
16964;DHT22;8598;50.508;10.436;2023-02-26T13:42:36;2.20;99.90
16964;DHT22;8598;50.508;10.436;2023-02-26T13:45:20;2.40;99.90
16964;DHT22;8598;50.508;10.436;2023-02-26T13:47:57;2.40;99.90
16964;DHT22;8598;50.508;10.436;2023-02-26T13:50:36;2.10;99.90
16964;DHT22;8598;50.508;10.436;2023-02-26T13:53:34;2.00;99.90
16964;DHT22;8598;50.508;10.436;2023-02-26T13:56:07;2.00;99.90
16964;DHT22;8598;50.508;10.436;2023-02-26T13:58:39;2.00;99.90
16964;DHT22;8598;50.508;10.436;2023-02-26T14:01:09;2.00;99.90
16964;DHT22;8598;50.508;10.436;2023-02-26T14:03:44;2.20;99.90
16964;DHT22;8598;50.508;10.436;2023-02-26T14:06:37;2.30;99.90
16964;DHT22;8598;50.508;10.436;2023-02-26T14:09:28;2.20;99.90
16964;DHT22;8598;50.508;10.436;2023-02-26T14:12:00;2.10;99.90
16964;DHT22;8598;50.508;10.436;2023-02-26T14:14:34;2.20;99.90
16964;DHT22;8598;50.508;10.436;2023-02-26T14:17:34;2.10;99.90
16964;DHT22;8598;50.508;10.436;2023-02-26T14:20:21;1.90;99.90
16964;DHT22;8598;50.508;10.436;2023-02-26T14:22:51;1.70;99.90
16964;DHT22;8598;50.508;10.436;2023-02-26T14:25:24;1.60;99.90
16964;DHT22;8598;50.508;10.436;2023-02-26T14:28:28;1.70;99.90
16964;DHT22;8598;50.508;10.436;2023-02-26T14:31:10;1.90;99.90
16964;DHT22;8598;50.508;10.436;2023-02-26T14:33:43;2.10;99.90
16964;DHT22;8598;50.508;10.436;2023-02-26T14:36:16;2.20;99.90
16964;DHT22;8598;50.508;10.436;2023-02-26T14:38:45;2.00;99.90
16964;DHT22;8598;50.508;10.436;2023-02-26T14:41:23;1.90;99.90
16964;DHT22;8598;50.508;10.436;2023-02-26T14:43:59;1.80;99.90
16964;DHT22;8598;50.508;10.436;2023-02-26T14:46:26;1.80;99.90
16964;DHT22;8598;50.508;10.436;2023-02-26T14:48:54;1.60;99.90
16964;DHT22;8598;50.508;10.436;2023-02-26T14:51:31;1.90;99.90
16964;DHT22;8598;50.508;10.436;2023-02-26T14:54:19;1.60;99.90
16964;DHT22;8598;50.508;10.436;2023-02-26T14:57:01;1.50;99.90
16964;DHT22;8598;50.508;10.436;2023-02-26T14:59:52;1.60;99.90
16964;DHT22;8598;50.508;10.436;2023-02-26T15:02:27;1.50;99.90
16964;DHT22;8598;50.508;10.436;2023-02-26T15:05:16;1.50;99.90
16964;DHT22;8598;50.508;10.436;2023-02-26T15:07:57;1.50;99.90
16964;DHT22;8598;50.508;10.436;2023-02-26T15:10:39;1.50;99.90
16964;DHT22;8598;50.508;10.436;2023-02-26T15:13:28;1.40;99.90
16964;DHT22;8598;50.508;10.436;2023-02-26T15:16:07;1.40;99.90
16964;DHT22;8598;50.508;10.436;2023-02-26T15:21:33;1.10;99.90
16964;DHT22;8598;50.508;10.436;2023-02-26T15:24:04;1.10;99.90
16964;DHT22;8598;50.508;10.436;2023-02-26T15:26:39;1.00;99.90
16964;DHT22;8598;50.508;10.436;2023-02-26T15:29:11;0.90;99.90
16964;DHT22;8598;50.508;10.436;2023-02-26T15:31:43;0.80;99.90
16964;DHT22;8598;50.508;10.436;2023-02-26T15:34:10;0.70;99.90
16964;DHT22;8598;50.508;10.436;2023-02-26T15:36:40;0.80;99.90
16964;DHT22;8598;50.508;10.436;2023-02-26T15:39:08;0.70;99.90
16964;DHT22;8598;50.508;10.436;2023-02-26T15:41:36;0.70;99.90
16964;DHT22;8598;50.508;10.436;2023-02-26T15:44:07;1.20;99.90
16964;DHT22;8598;50.508;10.436;2023-02-26T15:46:42;0.80;99.90
16964;DHT22;8598;50.508;10.436;2023-02-26T15:49:13;0.80;99.90
16964;DHT22;8598;50.508;10.436;2023-02-26T15:51:42;0.80;99.90
16964;DHT22;8598;50.508;10.436;2023-02-26T15:54:14;0.80;99.90
16964;DHT22;8598;50.508;10.436;2023-02-26T15:56:42;0.80;99.90
16964;DHT22;8598;50.508;10.436;2023-02-26T15:59:12;0.80;99.90
16964;DHT22;8598;50.508;10.436;2023-02-26T16:01:42;0.80;99.90
16964;DHT22;8598;50.508;10.436;2023-02-26T16:04:13;0.80;99.90
16964;DHT22;8598;50.508;10.436;2023-02-26T16:06:42;0.80;99.90
16964;DHT22;8598;50.508;10.436;2023-02-26T16:09:16;0.90;99.90
16964;DHT22;8598;50.508;10.436;2023-02-26T16:11:43;0.90;99.90
16964;DHT22;8598;50.508;10.436;2023-02-26T16:14:26;0.90;99.90
16964;DHT22;8598;50.508;10.436;2023-02-26T16:16:54;0.80;99.90
16964;DHT22;8598;50.508;10.436;2023-02-26T16:19:30;0.80;99.90
16964;DHT22;8598;50.508;10.436;2023-02-26T16:22:01;0.70;99.90